createdAt,value
2019-05-06T00:00:26.057Z,99.90
2019-05-06T00:02:54.818Z,99.90
2019-05-06T00:05:25.500Z,99.90
2019-05-06T00:07:54.751Z,99.90
2019-05-06T00:10:34.135Z,99.90
2019-05-06T00:13:04.388Z,99.90
2019-05-06T00:15:34.375Z,99.90
2019-05-06T00:18:04.443Z,99.90
2019-05-06T00:20:35.006Z,99.90
2019-05-06T00:23:24.934Z,99.90
2019-05-06T00:26:13.553Z,99.70
2019-05-06T00:28:45.982Z,99.90
2019-05-06T00:31:19.001Z,99.90
2019-05-06T00:33:47.573Z,99.90
2019-05-06T00:36:16.215Z,99.90
2019-05-06T00:38:46.671Z,99.90
2019-05-06T00:41:24.706Z,99.90
2019-05-06T00:43:54.611Z,99.90
2019-05-06T00:46:24.319Z,99.90
2019-05-06T00:48:54.224Z,99.90
2019-05-06T00:51:24.266Z,99.90
2019-05-06T00:54:04.081Z,99.90
2019-05-06T00:56:36.577Z,99.90
2019-05-06T00:59:07.795Z,99.90
2019-05-06T01:01:39.190Z,99.90
2019-05-06T01:04:10.112Z,99.90
2019-05-06T01:06:54.519Z,99.90
2019-05-06T01:09:26.918Z,99.90
2019-05-06T01:11:59.411Z,99.90
2019-05-06T01:14:54.517Z,99.90
2019-05-06T01:17:30.815Z,99.90
2019-05-06T01:20:04.218Z,99.90
2019-05-06T01:22:34.535Z,99.90
2019-05-06T01:25:06.349Z,99.90
2019-05-06T01:27:39.349Z,99.90
2019-05-06T01:30:11.195Z,99.90
2019-05-06T01:32:43.582Z,99.90
2019-05-06T01:35:14.400Z,99.90
2019-05-06T01:37:54.545Z,99.90
2019-05-06T01:40:41.122Z,99.90
2019-05-06T01:43:16.365Z,99.90
2019-05-06T01:45:46.497Z,99.90
2019-05-06T01:48:16.945Z,99.90
2019-05-06T01:50:45.512Z,99.90
2019-05-06T01:53:14.100Z,99.90
2019-05-06T01:55:43.774Z,99.90
2019-05-06T01:58:14.498Z,99.90
2019-05-06T02:00:43.731Z,99.90
2019-05-06T02:03:14.711Z,99.90
2019-05-06T02:05:44.407Z,99.90
2019-05-06T02:08:13.507Z,99.90
2019-05-06T02:10:43.577Z,99.90
2019-05-06T02:13:14.128Z,99.90
2019-05-06T02:15:44.823Z,99.90
2019-05-06T02:18:13.518Z,99.90
2019-05-06T02:20:44.509Z,99.90
2019-05-06T02:23:14.873Z,99.90
2019-05-06T02:25:45.100Z,99.90
2019-05-06T02:28:14.296Z,99.90
2019-05-06T02:30:54.785Z,99.90
2019-05-06T02:33:30.252Z,99.90
2019-05-06T02:36:06.705Z,99.90
2019-05-06T02:38:46.071Z,99.90
2019-05-06T02:41:05.849Z,99.90
2019-05-06T02:43:34.860Z,99.90
2019-05-06T02:46:04.416Z,99.90
2019-05-06T02:48:34.838Z,99.90
2019-05-06T02:51:05.095Z,99.90
2019-05-06T02:53:33.932Z,99.90
2019-05-06T02:56:04.156Z,99.90
2019-05-06T02:58:33.185Z,99.90
2019-05-06T03:01:03.477Z,99.90
2019-05-06T03:03:33.791Z,99.90
2019-05-06T03:06:03.868Z,99.90
2019-05-06T03:08:33.123Z,99.90
2019-05-06T03:11:03.910Z,99.90
2019-05-06T03:13:33.923Z,99.90
2019-05-06T03:16:05.392Z,99.90
2019-05-06T03:18:32.957Z,99.90
2019-05-06T03:21:04.064Z,99.90
2019-05-06T03:23:37.658Z,99.90
2019-05-06T03:26:06.969Z,99.50
2019-05-06T03:28:35.718Z,96.90
2019-05-06T03:31:06.937Z,94.80
2019-05-06T03:33:55.302Z,93.00
2019-05-06T03:36:14.916Z,92.00
2019-05-06T03:38:35.591Z,90.20
2019-05-06T03:41:04.295Z,87.20
2019-05-06T03:43:33.818Z,87.20
2019-05-06T03:46:07.237Z,90.40
2019-05-06T03:48:53.998Z,89.90
2019-05-06T03:51:23.342Z,90.00
2019-05-06T03:53:53.946Z,91.60
2019-05-06T03:56:24.032Z,91.40
2019-05-06T03:58:54.127Z,92.60
2019-05-06T04:01:24.098Z,91.90
2019-05-06T04:03:56.921Z,92.40
2019-05-06T04:06:24.170Z,93.20
2019-05-06T04:08:53.838Z,93.50
2019-05-06T04:11:23.608Z,92.90
2019-05-06T04:13:53.805Z,92.50
2019-05-06T04:16:24.202Z,92.70
2019-05-06T04:18:54.774Z,93.10
2019-05-06T04:21:27.833Z,92.50
2019-05-06T04:23:58.065Z,92.00
2019-05-06T04:26:46.474Z,92.60
2019-05-06T04:29:15.633Z,93.20
2019-05-06T04:31:44.287Z,93.30
2019-05-06T04:34:18.857Z,92.90
2019-05-06T04:36:44.200Z,93.30
2019-05-06T04:39:13.605Z,94.10
2019-05-06T04:41:43.423Z,93.40
2019-05-06T04:44:13.930Z,93.50
2019-05-06T04:46:44.366Z,91.70
2019-05-06T04:49:15.000Z,90.40
2019-05-06T04:51:43.614Z,87.70
2019-05-06T04:54:13.375Z,86.70
2019-05-06T04:56:43.805Z,85.00
2019-05-06T04:59:13.939Z,85.00
2019-05-06T05:01:45.512Z,81.40
2019-05-06T05:04:26.812Z,82.50
2019-05-06T05:06:44.275Z,82.00
2019-05-06T05:09:16.649Z,81.00
2019-05-06T05:11:54.141Z,80.40
2019-05-06T05:14:25.814Z,80.40
2019-05-06T05:17:02.327Z,81.50
2019-05-06T05:19:32.781Z,82.90
2019-05-06T05:22:08.150Z,82.90
2019-05-06T05:24:37.770Z,83.10
2019-05-06T05:27:07.298Z,82.10
2019-05-06T05:29:36.105Z,82.20
2019-05-06T05:32:04.986Z,80.80
2019-05-06T05:34:39.945Z,75.70
2019-05-06T05:37:04.020Z,72.90
2019-05-06T05:39:33.336Z,68.10
2019-05-06T05:42:11.901Z,60.50
2019-05-06T05:44:43.171Z,54.70
2019-05-06T05:47:12.385Z,47.10
2019-05-06T05:49:42.791Z,45.00
2019-05-06T05:52:12.667Z,46.30
2019-05-06T05:54:42.376Z,47.90
2019-05-06T05:57:11.931Z,54.10
2019-05-06T05:59:42.078Z,57.90
2019-05-06T06:02:10.158Z,58.30
2019-05-06T06:04:51.964Z,58.40
2019-05-06T06:07:09.065Z,63.80
2019-05-06T06:09:39.466Z,66.10
2019-05-06T06:12:08.409Z,65.80
2019-05-06T06:14:43.783Z,66.50
2019-05-06T06:17:28.824Z,63.70
2019-05-06T06:19:58.958Z,65.80
2019-05-06T06:22:29.326Z,67.70
2019-05-06T06:24:58.127Z,67.80
2019-05-06T06:27:26.810Z,66.00
2019-05-06T06:29:55.605Z,66.90
2019-05-06T06:32:25.804Z,54.60
2019-05-06T06:35:10.741Z,45.60
2019-05-06T06:37:34.016Z,39.70
2019-05-06T06:40:04.485Z,35.00
2019-05-06T06:42:33.512Z,34.90
2019-05-06T06:45:03.509Z,28.50
2019-05-06T06:47:32.881Z,27.70
2019-05-06T06:50:02.767Z,28.90
2019-05-06T06:52:32.667Z,28.70
2019-05-06T06:55:02.394Z,29.20
2019-05-06T06:57:42.536Z,27.40
2019-05-06T07:00:30.098Z,27.80
2019-05-06T07:03:06.401Z,26.60
2019-05-06T07:05:52.757Z,29.40
2019-05-06T07:08:33.977Z,31.70
2019-05-06T07:10:52.570Z,27.50
2019-05-06T07:13:23.177Z,26.00
2019-05-06T07:15:52.123Z,28.00
2019-05-06T07:18:22.421Z,28.30
2019-05-06T07:20:58.034Z,25.00
2019-05-06T07:23:32.663Z,24.30
2019-05-06T07:26:03.059Z,27.50
2019-05-06T07:28:32.605Z,26.70
2019-05-06T07:31:17.884Z,24.20
2019-05-06T07:33:33.470Z,24.00
2019-05-06T07:36:02.335Z,24.90
2019-05-06T07:38:32.520Z,25.70
2019-05-06T07:41:04.571Z,24.10
2019-05-06T07:43:53.177Z,23.00
2019-05-06T07:46:23.651Z,22.20
2019-05-06T07:48:52.345Z,21.60
2019-05-06T07:51:21.028Z,22.70
2019-05-06T07:53:52.335Z,22.60
2019-05-06T07:56:22.253Z,22.50
2019-05-06T07:58:52.871Z,23.10
2019-05-06T08:01:25.997Z,22.50
2019-05-06T08:03:53.276Z,21.90
2019-05-06T08:06:22.785Z,21.70
2019-05-06T08:08:53.650Z,21.80
2019-05-06T08:11:22.664Z,20.70
2019-05-06T08:13:52.872Z,21.70
2019-05-06T08:16:22.653Z,21.90
2019-05-06T08:18:52.459Z,21.80
2019-05-06T08:21:23.599Z,21.80
2019-05-06T08:23:53.910Z,20.80
2019-05-06T08:26:22.695Z,20.00
2019-05-06T08:28:52.729Z,19.50
2019-05-06T08:31:22.741Z,19.40
2019-05-06T08:33:52.463Z,19.20
2019-05-06T08:36:23.084Z,19.10
2019-05-06T08:38:59.544Z,18.60
2019-05-06T08:41:28.525Z,17.90
2019-05-06T08:43:57.466Z,18.70
2019-05-06T08:46:26.220Z,19.80
2019-05-06T08:48:54.960Z,20.70
2019-05-06T08:51:34.074Z,20.40
2019-05-06T08:54:07.462Z,20.10
2019-05-06T08:56:36.027Z,19.40
2019-05-06T08:59:04.729Z,21.40
2019-05-06T09:01:38.102Z,21.10
2019-05-06T09:04:12.361Z,19.10
2019-05-06T09:06:37.375Z,19.00
2019-05-06T09:09:07.869Z,19.00
2019-05-06T09:11:36.813Z,20.30
2019-05-06T09:14:09.452Z,20.30
2019-05-06T09:16:36.346Z,20.80
2019-05-06T09:19:05.243Z,23.00
2019-05-06T09:21:34.011Z,21.90
2019-05-06T09:24:02.765Z,19.90
2019-05-06T09:26:33.194Z,20.80
2019-05-06T09:29:03.381Z,19.90
2019-05-06T09:31:36.062Z,21.90
2019-05-06T09:34:06.402Z,21.30
2019-05-06T09:36:43.898Z,20.10
2019-05-06T09:39:07.230Z,18.10
2019-05-06T09:41:35.964Z,17.80
2019-05-06T09:44:04.758Z,18.00
2019-05-06T09:46:33.486Z,20.30
2019-05-06T09:49:12.833Z,19.90
2019-05-06T09:51:42.479Z,20.10
2019-05-06T09:54:13.031Z,20.10
2019-05-06T09:56:55.462Z,20.10
2019-05-06T09:59:24.250Z,20.00
2019-05-06T10:01:53.039Z,20.70
2019-05-06T10:04:21.714Z,19.50
2019-05-06T10:06:59.449Z,19.80
2019-05-06T10:09:24.653Z,20.40
2019-05-06T10:11:52.560Z,18.40
2019-05-06T10:14:23.433Z,21.90
2019-05-06T10:16:52.396Z,25.30
2019-05-06T10:19:22.643Z,28.70
2019-05-06T10:21:53.061Z,32.60
2019-05-06T10:24:22.184Z,34.00
2019-05-06T10:26:52.505Z,33.20
2019-05-06T10:29:25.462Z,33.30
2019-05-06T10:31:55.691Z,32.30
2019-05-06T10:34:24.323Z,31.80
2019-05-06T10:37:19.208Z,32.00
2019-05-06T10:39:49.085Z,33.00
2019-05-06T10:42:22.580Z,34.10
2019-05-06T10:44:56.793Z,33.60
2019-05-06T10:47:25.389Z,35.30
2019-05-06T10:49:54.004Z,35.00
2019-05-06T10:52:24.303Z,33.10
2019-05-06T10:54:52.885Z,32.80
2019-05-06T10:57:23.118Z,32.00
2019-05-06T10:59:51.769Z,31.40
2019-05-06T11:02:23.268Z,32.00
2019-05-06T11:04:52.964Z,31.70
2019-05-06T11:07:31.314Z,32.60
2019-05-06T11:09:53.237Z,32.30
2019-05-06T11:12:22.104Z,31.60
2019-05-06T11:14:53.193Z,32.40
2019-05-06T11:17:23.127Z,32.50
2019-05-06T11:19:53.160Z,33.10
2019-05-06T11:22:24.579Z,32.60
2019-05-06T11:24:51.805Z,33.10
2019-05-06T11:27:28.975Z,31.80
2019-05-06T11:29:55.218Z,34.40
2019-05-06T11:32:33.039Z,33.70
2019-05-06T11:35:03.900Z,31.50
2019-05-06T11:37:49.020Z,33.60
2019-05-06T11:40:16.521Z,32.90
2019-05-06T11:42:43.475Z,31.00
2019-05-06T11:45:12.171Z,32.40
2019-05-06T11:47:42.114Z,31.50
2019-05-06T11:50:12.929Z,32.00
2019-05-06T11:52:43.347Z,31.80
2019-05-06T11:55:13.927Z,33.50
2019-05-06T11:57:44.665Z,31.00
2019-05-06T12:00:18.354Z,31.90
2019-05-06T12:02:48.867Z,32.50
2019-05-06T12:05:17.330Z,33.10
2019-05-06T12:08:00.749Z,33.90
2019-05-06T12:10:16.477Z,34.20
2019-05-06T12:12:45.071Z,36.00
2019-05-06T12:15:13.722Z,34.80
2019-05-06T12:17:42.357Z,34.90
2019-05-06T12:20:13.160Z,34.30
2019-05-06T12:22:42.421Z,34.80
2019-05-06T12:25:15.243Z,33.10
2019-05-06T12:27:45.256Z,33.50
2019-05-06T12:30:17.297Z,33.00
2019-05-06T12:32:47.521Z,33.00
2019-05-06T12:35:16.254Z,32.60
2019-05-06T12:37:46.470Z,32.00
2019-05-06T12:40:15.494Z,33.00
2019-05-06T12:42:45.833Z,32.00
2019-05-06T12:45:16.826Z,30.90
2019-05-06T12:47:53.500Z,32.00
2019-05-06T12:50:22.786Z,31.60
2019-05-06T12:52:52.564Z,31.30
2019-05-06T12:55:25.115Z,32.60
2019-05-06T12:57:53.045Z,33.60
2019-05-06T13:00:23.709Z,36.10
2019-05-06T13:02:53.053Z,36.30
2019-05-06T13:05:21.140Z,35.30
2019-05-06T13:07:49.761Z,35.00
2019-05-06T13:10:19.406Z,35.90
2019-05-06T13:12:49.774Z,35.20
2019-05-06T13:15:18.442Z,34.00
2019-05-06T13:17:47.035Z,35.80
2019-05-06T13:20:15.971Z,35.60
2019-05-06T13:22:49.101Z,37.20
2019-05-06T13:25:17.769Z,36.50
2019-05-06T13:27:47.209Z,36.90
2019-05-06T13:30:15.779Z,37.90
2019-05-06T13:32:46.030Z,35.80
2019-05-06T13:35:14.966Z,35.10
2019-05-06T13:37:43.617Z,34.90
2019-05-06T13:40:12.633Z,34.50
2019-05-06T13:42:43.015Z,33.80
2019-05-06T13:45:12.186Z,34.60
2019-05-06T13:47:45.358Z,32.30
2019-05-06T13:50:16.834Z,31.70
2019-05-06T13:52:47.142Z,32.30
2019-05-06T13:55:15.935Z,33.00
2019-05-06T13:57:44.496Z,35.20
2019-05-06T14:00:13.993Z,35.20
2019-05-06T14:02:46.186Z,33.60
2019-05-06T14:05:15.093Z,32.80
2019-05-06T14:07:43.917Z,33.70
2019-05-06T14:10:14.049Z,33.80
2019-05-06T14:12:42.894Z,33.00
2019-05-06T14:15:12.564Z,33.70
2019-05-06T14:17:42.354Z,33.20
2019-05-06T14:20:12.487Z,33.30
2019-05-06T14:22:43.866Z,32.40
2019-05-06T14:25:19.669Z,33.20
2019-05-06T14:27:49.945Z,31.70
2019-05-06T14:30:22.823Z,31.40
2019-05-06T14:32:52.687Z,32.50
2019-05-06T14:35:23.048Z,32.70
2019-05-06T14:37:52.854Z,32.40
2019-05-06T14:40:23.551Z,32.60
2019-05-06T14:42:53.148Z,31.60
2019-05-06T14:45:22.402Z,31.80
2019-05-06T14:47:52.715Z,31.60
2019-05-06T14:50:31.473Z,30.70
2019-05-06T14:52:51.671Z,32.00
2019-05-06T14:55:22.597Z,30.70
2019-05-06T14:57:53.482Z,31.20
2019-05-06T15:00:23.068Z,31.50
2019-05-06T15:02:53.343Z,31.10
2019-05-06T15:05:22.731Z,31.40
2019-05-06T15:07:52.898Z,30.20
2019-05-06T15:10:25.484Z,31.00
2019-05-06T15:12:53.426Z,31.40
2019-05-06T15:15:22.877Z,31.40
2019-05-06T15:17:53.101Z,31.00
2019-05-06T15:20:22.470Z,31.60
2019-05-06T15:22:52.768Z,32.60
2019-05-06T15:25:22.171Z,32.20
2019-05-06T15:27:53.076Z,31.60
2019-05-06T15:30:34.958Z,31.50
2019-05-06T15:33:03.639Z,31.80
2019-05-06T15:35:42.890Z,31.70
2019-05-06T15:38:13.109Z,32.10
2019-05-06T15:40:44.059Z,32.10
2019-05-06T15:43:12.709Z,32.20
2019-05-06T15:45:42.982Z,32.80
2019-05-06T15:48:12.886Z,33.20
2019-05-06T15:50:45.398Z,33.60
2019-05-06T15:53:12.700Z,34.20
2019-05-06T15:55:43.529Z,33.80
2019-05-06T15:58:12.446Z,34.40
2019-05-06T16:00:42.482Z,34.60
2019-05-06T16:03:12.928Z,35.20
2019-05-06T16:05:43.662Z,36.40
2019-05-06T16:08:11.780Z,37.30
2019-05-06T16:10:51.830Z,37.60
2019-05-06T16:13:12.781Z,36.70
2019-05-06T16:15:42.334Z,36.90
2019-05-06T16:18:12.939Z,38.00
2019-05-06T16:20:41.474Z,37.30
2019-05-06T16:23:23.892Z,37.60
2019-05-06T16:25:52.629Z,36.90
2019-05-06T16:28:22.500Z,37.90
2019-05-06T16:30:53.406Z,37.20
2019-05-06T16:33:22.059Z,37.80
2019-05-06T16:35:52.253Z,36.90
2019-05-06T16:38:23.001Z,36.80
2019-05-06T16:41:02.157Z,37.00
2019-05-06T16:43:22.120Z,38.70
2019-05-06T16:45:53.151Z,38.90
2019-05-06T16:48:22.548Z,37.70
2019-05-06T16:50:51.670Z,37.60
2019-05-06T16:53:20.289Z,38.70
2019-05-06T16:56:02.074Z,37.20
2019-05-06T16:58:32.803Z,37.50
2019-05-06T17:01:03.285Z,36.20
2019-05-06T17:03:45.645Z,36.50
2019-05-06T17:06:18.962Z,37.30
2019-05-06T17:08:47.847Z,37.90
2019-05-06T17:11:27.158Z,38.10
2019-05-06T17:13:47.063Z,38.20
2019-05-06T17:16:16.873Z,38.20
2019-05-06T17:18:45.606Z,37.20
2019-05-06T17:21:14.275Z,37.30
2019-05-06T17:23:43.046Z,38.70
2019-05-06T17:26:12.767Z,37.70
2019-05-06T17:28:46.051Z,38.80
2019-05-06T17:31:32.506Z,38.60
2019-05-06T17:34:02.897Z,39.10
2019-05-06T17:36:33.087Z,40.00
2019-05-06T17:39:02.814Z,41.20
2019-05-06T17:41:44.943Z,40.90
2019-05-06T17:44:02.844Z,41.00
2019-05-06T17:46:45.141Z,41.10
2019-05-06T17:49:15.383Z,41.90
2019-05-06T17:52:02.987Z,41.40
2019-05-06T17:54:32.494Z,42.60
2019-05-06T17:57:03.822Z,43.80
2019-05-06T17:59:32.974Z,44.60
2019-05-06T18:02:02.578Z,44.00
2019-05-06T18:04:31.217Z,45.30
2019-05-06T18:06:59.898Z,44.60
2019-05-06T18:09:28.745Z,46.40
2019-05-06T18:11:59.287Z,47.20
2019-05-06T18:14:27.677Z,48.90
2019-05-06T18:16:56.296Z,47.10
2019-05-06T18:19:24.933Z,46.20
2019-05-06T18:21:53.575Z,48.50
2019-05-06T18:24:23.090Z,52.20
2019-05-06T18:26:52.882Z,52.40
2019-05-06T18:29:22.251Z,52.70
2019-05-06T18:31:52.461Z,53.20
2019-05-06T18:34:23.196Z,54.70
2019-05-06T18:36:52.442Z,54.90
2019-05-06T18:39:22.346Z,55.00
2019-05-06T18:41:53.170Z,53.70
2019-05-06T18:44:22.718Z,53.80
2019-05-06T18:46:53.042Z,56.60
2019-05-06T18:49:22.509Z,56.80
2019-05-06T18:51:52.050Z,57.10
2019-05-06T18:54:22.089Z,54.20
2019-05-06T18:56:52.219Z,55.00
2019-05-06T18:59:20.509Z,56.50
2019-05-06T19:01:49.929Z,60.10
2019-05-06T19:04:26.337Z,62.00
2019-05-06T19:07:09.535Z,61.30
2019-05-06T19:09:42.457Z,62.60
2019-05-06T19:12:12.811Z,64.10
2019-05-06T19:14:43.198Z,63.00
2019-05-06T19:17:13.176Z,62.30
2019-05-06T19:19:42.627Z,61.20
2019-05-06T19:22:13.679Z,61.10
2019-05-06T19:24:42.331Z,62.30
2019-05-06T19:27:09.703Z,63.50
2019-05-06T19:29:38.429Z,61.60
2019-05-06T19:32:07.036Z,64.30
2019-05-06T19:34:35.618Z,65.40
2019-05-06T19:37:04.354Z,68.80
2019-05-06T19:39:33.311Z,65.10
2019-05-06T19:42:02.871Z,71.80
2019-05-06T19:44:32.449Z,68.90
2019-05-06T19:47:02.557Z,68.80
2019-05-06T19:49:32.792Z,69.00
2019-05-06T19:52:03.154Z,68.70
2019-05-06T19:54:33.065Z,71.10
2019-05-06T19:57:02.606Z,71.00
2019-05-06T19:59:32.977Z,72.20
2019-05-06T20:02:00.090Z,74.30
2019-05-06T20:04:28.714Z,73.40
2019-05-06T20:06:58.948Z,71.10
2019-05-06T20:09:42.652Z,69.10
2019-05-06T20:12:18.762Z,70.40
2019-05-06T20:14:47.467Z,72.90
2019-05-06T20:17:16.049Z,76.50
2019-05-06T20:19:44.621Z,77.90
2019-05-06T20:22:13.399Z,81.50
2019-05-06T20:24:42.565Z,79.00
2019-05-06T20:27:13.303Z,78.60
2019-05-06T20:29:42.766Z,79.00
2019-05-06T20:32:12.144Z,77.20
2019-05-06T20:34:42.898Z,80.70
2019-05-06T20:37:12.852Z,82.50
2019-05-06T20:39:43.242Z,82.40
2019-05-06T20:42:12.807Z,78.00
2019-05-06T20:44:43.138Z,79.80
2019-05-06T20:47:10.265Z,80.60
2019-05-06T20:49:38.858Z,80.70
2019-05-06T20:52:07.450Z,78.90
2019-05-06T20:54:36.032Z,79.40
2019-05-06T20:57:04.635Z,79.10
2019-05-06T20:59:33.250Z,76.00
2019-05-06T21:02:03.117Z,77.10
2019-05-06T21:04:32.488Z,78.00
2019-05-06T21:07:02.801Z,77.30
2019-05-06T21:09:32.155Z,75.40
2019-05-06T21:12:00.931Z,77.40
2019-05-06T21:14:29.522Z,77.00
2019-05-06T21:16:58.089Z,75.50
2019-05-06T21:19:26.678Z,74.00
2019-05-06T21:21:55.250Z,73.70
2019-05-06T21:24:23.983Z,74.10
2019-05-06T21:26:53.107Z,72.60
2019-05-06T21:29:23.226Z,71.80
2019-05-06T21:31:53.057Z,73.80
2019-05-06T21:34:22.362Z,74.80
2019-05-06T21:36:53.090Z,74.50
2019-05-06T21:39:22.396Z,72.90
2019-05-06T21:41:52.125Z,72.60
2019-05-06T21:44:22.800Z,72.90
2019-05-06T21:46:51.324Z,72.90
2019-05-06T21:49:19.878Z,72.40
2019-05-06T21:51:48.633Z,72.80
2019-05-06T21:54:17.423Z,72.40
2019-05-06T21:56:46.013Z,72.80
2019-05-06T21:59:14.568Z,73.50
2019-05-06T22:01:43.313Z,75.20
2019-05-06T22:04:12.764Z,74.30
2019-05-06T22:06:42.890Z,75.50
2019-05-06T22:09:12.691Z,75.10
2019-05-06T22:11:42.411Z,76.80
2019-05-06T22:14:12.340Z,79.70
2019-05-06T22:16:43.508Z,77.40
2019-05-06T22:19:12.203Z,79.00
2019-05-06T22:21:57.089Z,78.10
2019-05-06T22:24:27.323Z,78.20
2019-05-06T22:26:55.889Z,79.70
2019-05-06T22:29:24.558Z,81.80
2019-05-06T22:31:53.177Z,80.90
2019-05-06T22:34:22.153Z,81.10
2019-05-06T22:36:51.903Z,82.40
2019-05-06T22:39:22.639Z,80.80
2019-05-06T22:41:52.008Z,81.80
2019-05-06T22:44:19.965Z,81.80
2019-05-06T22:46:48.533Z,81.30
2019-05-06T22:49:17.125Z,82.30
2019-05-06T22:51:45.685Z,82.10
2019-05-06T22:54:14.342Z,82.10
2019-05-06T22:56:43.004Z,82.70
2019-05-06T22:59:12.649Z,82.90
2019-05-06T23:01:43.302Z,83.50
2019-05-06T23:04:13.699Z,83.60
2019-05-06T23:06:42.388Z,83.90
2019-05-06T23:09:11.105Z,84.70
2019-05-06T23:11:39.655Z,84.80
2019-05-06T23:14:09.088Z,85.10
2019-05-06T23:16:37.779Z,85.60
2019-05-06T23:19:06.296Z,86.30
2019-05-06T23:21:35.002Z,86.80
2019-05-06T23:24:03.902Z,87.00
2019-05-06T23:26:32.489Z,86.90
2019-05-06T23:29:02.417Z,88.40
2019-05-06T23:31:33.280Z,87.70
2019-05-06T23:34:02.317Z,88.80
2019-05-06T23:36:52.810Z,88.80
2019-05-06T23:39:59.633Z,89.00
2019-05-06T23:43:04.685Z,89.80
2019-05-06T23:46:12.043Z,89.90
2019-05-06T23:49:16.908Z,90.10
2019-05-06T23:52:22.739Z,90.30
2019-05-06T23:55:27.662Z,90.50
2019-05-06T23:57:55.141Z,90.80
